Terminal Aerodrome Forecast
Issued by NWS Kansas City/Pleasant Hill, MO

Home | Current Version | Previous Version | Text Only | Print | Product List | Glossary On
Versions: 1 2 3 4 5 6 7 8 9 10 11 12 13 14 15 16 17 18 19 20 21
903
FTUS43 KEAX 221722
TAFMCI
TAF
KMCI 221722Z 2218/2318 24008KT P6SM VCSH OVC080
     FM222100 25008KT P6SM -SHRA VCTS OVC080CB
     FM222300 23007KT P6SM VCSH BKN090
     FM231000 32006KT P6SM BKN020=

USA.gov is the U.S. government's official web portal to all federal, state and local government web resources and services.